Time;durP1;ratioP1;P1;durP2;ratioP2;P2;SDS_P1;SDS_P2;PMS_P1;PMS_P2;Temp;Humidity;BMP_temperature;BMP_pressure;BME280_temperature;BME280_humidity;BME280_pressure;Samples;Min_cycle;Max_cycle;Signal;HPM_P1;HPM_P2
2022/05/26 00:00:22;;;;;;;9.73;3.83;;;16.10;99.90;;;17.00;53.76;98372.88;5059279;27;120066;-76
2022/05/26 00:02:50;;;;;;;6.28;3.40;;;16.00;99.90;;;16.86;55.39;98379.03;5060486;27;130408;-75
2022/05/26 00:05:19;;;;;;;6.10;3.33;;;15.90;99.90;;;16.73;56.32;98380.47;5059738;27;130446;-74
2022/05/26 00:07:47;;;;;;;5.38;3.03;;;15.70;99.90;;;16.62;59.23;98387.81;5060742;27;120312;-76
2022/05/26 00:10:17;;;;;;;8.38;3.42;;;15.60;99.90;;;16.42;59.95;98385.28;5062878;27;119138;-77
2022/05/26 00:12:45;;;;;;;5.55;3.47;;;15.40;99.90;;;16.26;61.68;98392.97;5059346;27;130827;-75
2022/05/26 00:15:15;;;;;;;5.43;3.38;;;15.30;99.90;;;16.09;64.93;98389.69;5060514;27;130306;-72
2022/05/26 00:17:43;;;;;;;6.85;3.58;;;15.10;99.90;;;15.88;67.44;98387.50;5060303;27;121323;-73
2022/05/26 00:20:13;;;;;;;5.75;3.70;;;14.80;99.90;;;15.74;66.47;98387.34;5060259;27;119328;-71
2022/05/26 00:22:41;;;;;;;6.40;4.00;;;14.60;99.90;;;15.59;70.95;98391.84;5061235;27;129516;-71
2022/05/26 00:25:10;;;;;;;7.35;3.65;;;14.50;1.00;;;15.40;72.19;98390.81;5059947;27;130550;-71
2022/05/26 00:27:40;;;;;;;7.35;3.90;;;14.30;1.00;;;15.35;72.33;98388.41;5059920;27;120303;-71
2022/05/26 00:30:12;;;;;;;9.02;3.92;;;14.20;1.00;;;15.30;75.09;98383.25;5060676;27;119792;-73
2022/05/26 00:32:40;;;;;;;8.07;4.20;;;14.20;1.00;;;15.18;76.50;98391.69;5059769;27;130144;-70
2022/05/26 00:35:10;;;;;;;8.15;4.45;;;14.00;1.00;;;15.16;77.49;98392.06;5059883;27;130479;-72
2022/05/26 00:37:39;;;;;;;8.32;4.30;;;13.90;1.00;;;15.12;78.68;98387.69;5057424;27;122051;-70
2022/05/26 00:40:09;;;;;;;6.82;4.03;;;13.80;1.00;;;15.06;80.46;98388.00;5060056;27;121906;-71
2022/05/26 00:42:39;;;;;;;6.30;4.10;;;13.80;1.00;;;15.00;81.67;98384.00;5059717;27;129976;-70
2022/05/26 00:45:10;;;;;;;7.00;4.90;;;13.70;1.00;;;14.94;81.51;98380.00;5059628;27;129703;-70
2022/05/26 00:47:45;;;;;;;9.07;4.60;;;13.60;1.00;;;14.78;81.34;98373.94;5060279;27;119527;-69
2022/05/26 00:50:21;;;;;;;8.57;4.75;;;13.40;1.00;;;14.70;82.08;98373.03;5059106;27;119574;-71
2022/05/26 00:52:56;;;;;;;8.77;4.63;;;13.30;1.00;;;14.65;83.35;98368.66;5060279;27;130485;-70
2022/05/26 00:55:29;;;;;;;6.70;4.53;;;13.30;1.00;;;14.61;85.35;98356.91;5060306;27;130065;-71
2022/05/26 00:58:05;;;;;;;8.48;4.82;;;13.30;1.00;;;14.49;85.57;98351.59;5061544;27;118931;-70
2022/05/26 01:00:39;;;;;;;9.80;5.15;;;13.20;1.00;;;14.45;86.81;98348.03;5044787;27;118835;-73
2022/05/26 01:03:15;;;;;;;6.47;4.65;;;13.10;1.00;;;14.39;87.28;98342.09;5058777;27;130589;-70
2022/05/26 01:05:52;;;;;;;7.70;5.32;;;13.10;1.00;;;14.41;88.38;98333.53;5060346;27;129756;-71
2022/05/26 01:08:30;;;;;;;8.65;4.85;;;13.10;1.00;;;14.41;87.86;98333.53;5059857;27;120081;-69
2022/05/26 01:10:58;;;;;;;12.13;5.00;;;13.10;1.00;;;14.34;89.12;98324.06;5060246;27;120008;-69
2022/05/26 01:13:30;;;;;;;9.48;5.28;;;13.00;1.00;;;14.33;90.97;98324.44;5059941;27;131069;-69
2022/05/26 01:16:06;;;;;;;8.57;5.63;;;13.10;1.00;;;14.26;90.79;98316.94;5059660;27;129655;-69
2022/05/26 01:18:51;;;;;;;10.20;5.10;;;13.00;1.00;;;14.19;90.70;98314.06;5058694;27;120298;-70
2022/05/26 01:21:26;;;;;;;8.88;5.72;;;12.90;1.00;;;14.09;92.14;98309.25;5059998;27;119855;-69
2022/05/26 01:24:53;;;;;;;7.97;5.33;;;12.90;1.00;;;13.90;94.44;98305.41;5044109;27;129136;-74
2022/05/26 01:27:34;;;;;;;9.55;6.07;;;12.90;1.00;;;13.73;97.22;98297.69;5059227;27;129910;-71
2022/05/26 01:30:24;;;;;;;10.32;7.13;;;12.90;1.00;;;13.63;99.87;98299.06;5058042;27;122270;-71
2022/05/26 01:33:35;;;;;;;11.32;7.20;;;12.90;1.00;;;13.49;100.00;98294.13;5061100;27;121791;-71
2022/05/26 01:36:24;;;;;;;9.25;5.90;;;12.80;1.00;;;13.33;100.00;98298.88;5060928;27;129453;-70
2022/05/26 01:39:18;;;;;;;13.73;6.45;;;12.70;1.00;;;13.28;100.00;98289.81;5056648;27;130277;-73
2022/05/26 01:42:10;;;;;;;8.98;6.72;;;12.70;3.10;;;13.28;100.00;98291.75;5060887;27;118692;-71
2022/05/26 01:44:49;;;;;;;11.77;6.80;;;12.70;22.90;;;12.97;100.00;98279.06;5058847;27;119559;-66
2022/05/26 01:47:37;;;;;;;10.80;6.88;;;12.60;88.50;;;12.83;100.00;98274.09;5058454;27;129675;-69
2022/05/26 01:50:21;;;;;;;8.98;6.60;;;12.50;99.90;;;12.72;100.00;98263.75;5058820;27;131078;-70
2022/05/26 01:53:08;;;;;;;8.55;6.47;;;12.40;99.90;;;12.57;100.00;98257.22;5058878;27;120111;-70
2022/05/26 01:55:46;;;;;;;9.60;6.75;;;12.40;99.90;;;12.41;100.00;98264.63;5061985;27;121395;-70
2022/05/26 01:58:22;;;;;;;12.80;7.55;;;12.30;99.90;;;12.38;100.00;98260.66;5059000;27;129274;-71
2022/05/26 02:00:52;;;;;;;11.30;7.03;;;12.30;99.90;;;12.28;100.00;98249.53;5058310;27;130495;-71
2022/05/26 02:03:26;;;;;;;12.20;7.50;;;12.30;99.90;;;12.31;100.00;98249.63;5058777;27;120365;-73
2022/05/26 02:06:05;;;;;;;10.25;7.20;;;12.40;99.90;;;12.32;100.00;98239.53;5058529;27;119450;-71
2022/05/26 02:08:39;;;;;;;12.13;7.28;;;12.30;99.90;;;12.28;100.00;98238.66;5058329;27;130245;-68
2022/05/26 02:11:15;;;;;;;13.35;8.57;;;12.30;99.90;;;12.25;100.00;98236.63;5060430;27;128672;-68
2022/05/26 02:13:49;;;;;;;9.30;7.13;;;12.30;99.90;;;12.31;100.00;98227.88;5057171;27;120110;-70
2022/05/26 02:16:24;;;;;;;12.65;7.85;;;12.40;99.90;;;12.44;100.00;98225.03;5059250;27;120070;-69
2022/05/26 02:18:57;;;;;;;11.60;7.00;;;12.40;99.90;;;12.33;100.00;98219.38;5058347;27;130212;-69
2022/05/26 02:21:34;;;;;;;11.70;7.30;;;12.30;99.90;;;12.35;100.00;98219.78;5058228;27;129488;-70
2022/05/26 02:24:10;;;;;;;14.95;8.32;;;12.30;99.90;;;12.42;100.00;98211.78;5057282;27;123185;-70
2022/05/26 02:26:39;;;;;;;12.35;8.02;;;12.40;99.90;;;12.34;100.00;98210.03;5058452;27;122027;-70
2022/05/26 02:31:56;;;;;;;13.93;8.15;;;12.30;99.90;;;11.98;100.00;98204.59;5057803;27;130329;-71
2022/05/26 02:34:26;;;;;;;12.00;7.95;;;12.20;99.90;;;12.04;100.00;98205.91;5057017;27;120233;-67
2022/05/26 02:36:58;;;;;;;11.85;7.78;;;12.30;99.90;;;12.09;100.00;98204.84;5058245;27;119435;-68
2022/05/26 02:39:27;;;;;;;11.45;7.50;;;12.30;99.90;;;11.99;100.00;98199.94;5056565;27;130454;-68
2022/05/26 02:41:58;;;;;;;11.95;7.60;;;12.20;99.90;;;11.90;100.00;98193.84;5058371;27;130849;-70
2022/05/26 02:44:30;;;;;;;14.52;8.25;;;12.20;99.90;;;11.88;100.00;98194.97;5058411;27;120545;-69
2022/05/26 02:47:15;;;;;;;11.35;8.20;;;12.20;99.90;;;11.74;100.00;98189.22;5060243;27;118510;-69
2022/05/26 02:50:05;;;;;;;14.15;8.02;;;12.10;99.90;;;11.63;100.00;98188.94;5056170;27;131062;-71
2022/05/26 02:52:44;;;;;;;12.25;8.82;;;12.10;99.90;;;11.58;100.00;98185.72;5063073;27;128889;-69
2022/05/26 02:55:19;;;;;;;17.00;8.50;;;12.10;99.90;;;11.56;100.00;98179.81;5061765;27;120232;-70
2022/05/26 02:58:03;;;;;;;14.00;8.23;;;12.00;99.90;;;11.61;100.00;98182.28;5061440;27;120626;-69
2022/05/26 03:00:38;;;;;;;13.93;8.63;;;12.10;99.90;;;11.74;100.00;98189.22;5063017;27;130261;-71
2022/05/26 03:03:13;;;;;;;16.77;8.70;;;12.10;99.90;;;11.75;100.00;98185.34;5061201;27;130053;-70
2022/05/26 03:05:52;;;;;;;10.73;8.48;;;12.10;99.90;;;11.92;100.00;98194.28;5046379;27;119033;-73
2022/05/26 03:08:28;;;;;;;10.23;7.18;;;12.20;99.90;;;11.92;100.00;98188.84;5061836;27;119900;-69
2022/05/26 03:11:07;;;;;;;11.80;8.23;;;12.10;99.90;;;11.90;100.00;98196.56;5059520;27;129664;-68
2022/05/26 03:13:36;;;;;;;11.45;8.20;;;12.20;99.90;;;11.98;100.00;98182.03;5061123;27;129508;-69
2022/05/26 03:16:06;;;;;;;12.00;8.13;;;12.20;99.90;;;12.03;100.00;98184.50;5060195;27;122713;-70
2022/05/26 03:18:34;;;;;;;12.75;8.18;;;12.20;99.90;;;12.00;100.00;98191.41;5061283;27;121817;-68
2022/05/26 03:21:06;;;;;;;12.68;8.13;;;12.20;99.90;;;11.98;100.00;98182.03;5061043;27;130163;-69
2022/05/26 03:23:39;;;;;;;10.98;7.57;;;12.20;99.90;;;11.94;100.00;98197.50;5060879;27;129380;-70
2022/05/26 03:26:08;;;;;;;12.27;8.02;;;12.20;99.90;;;11.95;100.00;98204.47;5060945;27;119180;-69
2022/05/26 03:28:37;;;;;;;11.02;8.32;;;12.30;99.90;;;11.96;100.00;98211.50;5063110;27;118429;-70
2022/05/26 03:31:10;;;;;;;10.38;6.75;;;12.30;99.90;;;12.00;100.00;98202.28;5060882;27;131089;-72
2022/05/26 03:41:58;;;;;;;8.60;6.43;;;12.20;99.90;;;11.74;100.00;98219.09;5059559;27;129935;-72
2022/05/26 03:44:30;;;;;;;8.07;5.68;;;12.20;99.90;;;11.74;100.00;98210.94;5045758;27;128955;-70
2022/05/26 03:46:58;;;;;;;9.45;6.47;;;12.20;99.90;;;11.82;100.00;98218.13;5062813;27;118316;-68
2022/05/26 03:49:27;;;;;;;9.23;6.30;;;12.20;99.90;;;11.91;100.00;98215.25;5060751;27;119469;-69
2022/05/26 03:51:57;;;;;;;10.05;6.88;;;12.20;99.90;;;12.00;100.00;98220.53;5060398;27;131124;-67
2022/05/26 03:54:27;;;;;;;9.02;5.57;;;12.20;99.90;;;12.04;100.00;98224.13;5060450;27;129782;-68
2022/05/26 03:56:56;;;;;;;6.22;3.58;;;12.20;99.90;;;11.91;100.00;98212.53;5045002;27;119513;-69
2022/05/26 03:59:24;;;;;;;4.47;2.78;;;12.10;99.90;;;11.68;100.00;98217.78;5041037;27;119873;-71
2022/05/26 04:01:53;;;;;;;3.30;2.08;;;12.00;99.90;;;11.59;100.00;98236.97;5039060;27;130189;-71
2022/05/26 04:04:25;;;;;;;3.15;1.90;;;11.90;99.90;;;11.50;100.00;98234.44;5039825;27;129220;-72
2022/05/26 04:06:53;;;;;;;2.67;1.65;;;11.90;99.90;;;11.50;100.00;98244.50;5040377;27;121680;-72
2022/05/26 04:09:22;;;;;;;2.28;1.40;;;11.70;99.90;;;11.49;100.00;98241.00;5038560;27;122624;-73
2022/05/26 04:11:53;;;;;;;3.33;1.67;;;11.70;99.90;;;11.54;100.00;98247.31;5038036;27;130206;-70
2022/05/26 04:14:22;;;;;;;1.48;1.08;;;11.70;99.90;;;11.47;100.00;98262.28;5039551;27;129483;-69
2022/05/26 04:16:50;;;;;;;1.20;1.10;;;11.70;99.90;;;11.31;100.00;98259.53;5041450;27;118528;-70
2022/05/26 04:19:19;;;;;;;2.08;1.30;;;11.70;99.90;;;11.37;100.00;98251.13;5041076;27;118384;-72
2022/05/26 04:24:33;;;;;;;1.67;1.10;;;11.70;99.90;;;11.35;100.00;98270.50;5038384;27;129727;-73
2022/05/26 04:27:03;;;;;;;2.38;1.20;;;11.60;99.90;;;11.38;100.00;98280.66;5038556;27;119955;-76
2022/05/26 04:29:32;;;;;;;1.88;1.17;;;11.60;99.90;;;11.33;100.00;98253.75;5038147;27;119822;-72
2022/05/26 04:32:01;;;;;;;1.45;1.00;;;11.50;99.90;;;11.24;100.00;98280.28;5038420;27;129789;-75
2022/05/26 04:34:30;;;;;;;2.25;1.27;;;11.50;99.90;;;11.32;100.00;98287.47;5039332;27;130105;-72
2022/05/26 04:36:59;;;;;;;3.15;1.20;;;11.60;99.90;;;11.29;100.00;98293.59;5041480;27;118848;-72
2022/05/26 04:39:27;;;;;;;1.55;1.10;;;11.60;99.90;;;11.20;100.00;98295.66;5039953;27;119877;-70
2022/05/26 04:42:00;;;;;;;2.92;1.00;;;11.50;99.90;;;11.19;100.00;98299.50;5039396;27;129871;-76
2022/05/26 04:44:34;;;;;;;1.65;1.00;;;11.60;99.90;;;11.14;100.00;98304.06;5038029;27;130053;-75
2022/05/26 04:47:03;;;;;;;1.35;1.10;;;11.50;99.90;;;11.09;100.00;98304.28;5039781;27;120223;-74
2022/05/26 04:49:32;;;;;;;1.92;1.23;;;11.50;99.90;;;11.21;100.00;98310.84;5040149;27;119443;-73
2022/05/26 04:52:01;;;;;;;1.67;1.10;;;11.50;99.90;;;11.35;100.00;98313.94;5039551;27;131881;-76
2022/05/26 04:54:29;;;;;;;14.23;1.38;;;11.60;99.90;;;11.52;100.00;98329.16;5039178;27;129460;-73
2022/05/26 04:56:59;;;;;;;2.28;1.20;;;11.60;99.90;;;11.56;100.00;98312.97;5038338;27;122112;-77
2022/05/26 04:59:28;;;;;;;2.92;1.10;;;11.70;99.90;;;11.59;100.00;98310.31;5040977;27;121049;-74
2022/05/26 05:01:58;;;;;;;1.60;1.00;;;11.60;99.90;;;11.74;100.00;98325.09;5036670;27;130725;-76
2022/05/26 05:04:28;;;;;;;1.83;1.00;;;11.70;99.90;;;11.99;100.00;98320.34;5039035;27;130030;-73
2022/05/26 05:06:57;;;;;;;1.60;0.90;;;11.80;99.90;;;12.07;100.00;98342.28;5039415;27;119147;-73
2022/05/26 05:09:26;;;;;;;1.05;0.88;;;11.70;99.90;;;11.91;100.00;98334.09;5039309;27;121100;-73
2022/05/26 05:11:54;;;;;;;1.40;0.90;;;11.80;99.90;;;11.87;100.00;98345.66;5037437;27;131211;-76
2022/05/26 05:14:22;;;;;;;1.08;0.80;;;11.70;99.90;;;11.93;100.00;98350.88;5040363;27;128398;-79
2022/05/26 05:16:51;;;;;;;0.90;0.90;;;11.70;98.40;;;11.91;100.00;98339.53;5041372;27;118887;-77
2022/05/26 05:19:21;;;;;;;1.13;0.90;;;11.70;77.50;;;11.91;100.00;98350.41;5041220;27;118595;-75
2022/05/26 05:21:53;;;;;;;1.38;0.95;;;11.60;38.50;;;12.10;100.00;98342.38;5037275;27;130395;-74
2022/05/26 05:24:30;;;;;;;1.75;0.88;;;11.70;1.00;;;12.22;100.00;98345.00;5038829;27;129724;-77
2022/05/26 05:27:05;;;;;;;1.60;1.10;;;11.60;1.00;;;12.21;100.00;98351.56;5039284;27;120102;-79
2022/05/26 05:29:38;;;;;;;1.65;0.80;;;11.70;1.00;;;12.30;100.00;98342.47;5037850;27;119464;-77
2022/05/26 05:32:14;;;;;;;1.55;0.93;;;11.70;1.00;;;12.04;100.00;98349.19;5040705;27;130909;-76
2022/05/26 05:34:48;;;;;;;2.80;1.20;;;11.70;1.00;;;11.99;100.00;98344.03;5038648;27;130060;-74
2022/05/26 05:37:17;;;;;;;0.93;0.77;;;11.70;1.00;;;11.93;100.00;98353.56;5038902;27;119771;-78
2022/05/26 05:39:45;;;;;;;0.80;0.77;;;11.60;1.00;;;11.95;100.00;98356.72;5039543;27;119841;-78
2022/05/26 05:42:14;;;;;;;1.00;0.80;;;11.60;1.00;;;11.99;100.00;98373.94;5037209;27;129612;-75
2022/05/26 05:44:43;;;;;;;1.88;1.00;;;11.50;1.00;;;11.91;100.00;98372.94;5040414;27;129594;-76
2022/05/26 05:47:11;;;;;;;2.28;0.93;;;11.50;1.00;;;11.94;100.00;98371.47;5037652;27;122867;-78
2022/05/26 05:49:40;;;;;;;1.42;0.98;;;11.40;1.00;;;11.81;100.00;98385.09;5039129;27;122210;-79
2022/05/26 05:52:14;;;;;;;1.42;1.05;;;11.40;1.00;;;11.67;100.00;98380.06;5038277;27;129947;-76
2022/05/26 05:54:42;;;;;;;1.92;1.00;;;11.50;1.00;;;11.77;100.00;98378.00;5038642;27;129644;-78
2022/05/26 05:57:11;;;;;;;1.63;1.00;;;11.50;1.00;;;11.84;100.00;98389.03;5040533;27;118777;-77
2022/05/26 05:59:40;;;;;;;1.55;0.85;;;11.50;1.00;;;12.17;100.00;98383.34;5041586;27;119692;-79
2022/05/26 06:02:09;;;;;;;1.95;1.10;;;11.60;1.00;;;12.33;97.54;98394.25;5038643;27;129938;-76
2022/05/26 06:04:41;;;;;;;2.63;1.20;;;11.60;1.00;;;12.67;96.52;98391.16;5038558;27;129534;-78
2022/05/26 06:07:16;;;;;;;2.03;1.27;;;11.90;1.00;;;12.99;93.62;98385.69;5037037;27;120122;-77
2022/05/26 06:09:46;;;;;;;1.45;1.10;;;12.10;1.00;;;13.11;93.50;98393.75;5037232;27;119511;-79
2022/05/26 06:12:16;;;;;;;1.77;1.45;;;12.10;1.00;;;12.99;94.47;98385.69;5036707;27;129798;-78
2022/05/26 06:14:46;;;;;;;1.30;1.15;;;12.10;1.00;;;12.68;92.13;98390.81;5038374;27;130126;-75
2022/05/26 06:17:15;;;;;;;2.28;1.20;;;11.90;1.00;;;12.54;93.80;98372.22;5040237;27;118342;-80
2022/05/26 06:19:44;;;;;;;4.65;1.40;;;11.70;1.00;;;12.56;94.61;98397.16;5038147;27;119860;-75
2022/05/26 06:22:18;;;;;;;1.52;1.10;;;11.80;1.00;;;12.70;91.66;98396.72;5039464;27;129584;-74
2022/05/26 06:24:48;;;;;;;1.58;1.15;;;11.70;1.00;;;12.77;91.53;98406.97;5038352;27;129452;-77
2022/05/26 06:30:09;;;;;;;3.80;1.55;;;11.90;1.00;;;13.36;89.04;98427.03;5027220;27;119885;-77
2022/05/26 06:38:26;;;;;;;;;;;12.70;1.00;;;14.04;83.98;98433.09;5042831;27;122230;-80
2022/05/26 06:40:54;;;;;;;1.45;1.00;;;12.60;1.00;;;14.01;85.01;98433.81;5042308;27;122389;-77
2022/05/26 06:43:23;;;;;;;2.42;1.48;;;12.80;1.00;;;13.74;85.58;98436.38;5043175;27;128809;-76
2022/05/26 06:45:51;;;;;;;3.17;1.02;;;12.70;1.00;;;13.65;85.60;98450.22;5040073;27;129843;-74
2022/05/26 06:48:19;;;;;;;2.72;1.35;;;12.60;1.00;;;14.09;82.50;98434.72;5041634;27;119785;-74
2022/05/26 06:50:48;;;;;;;1.23;1.05;;;12.60;1.00;;;14.14;79.87;98437.16;5025932;27;118688;-72
2022/05/26 06:53:20;;;;;;;1.85;1.02;;;12.50;1.00;;;14.74;78.17;98442.94;5041081;27;129977;-76
2022/05/26 06:55:50;;;;;;;0.93;0.90;;;12.80;1.00;;;15.33;75.38;98439.13;5041563;27;129374;-80
2022/05/26 06:58:18;;;;;;;1.92;1.20;;;13.00;1.00;;;14.62;79.18;98425.97;5042146;27;119559;-78
2022/05/26 07:00:47;;;;;;;2.88;1.50;;;13.20;1.00;;;15.18;77.61;98438.94;5041443;27;119507;-77
2022/05/26 07:03:15;;;;;;;2.97;1.40;;;13.30;1.00;;;15.20;75.29;98452.22;5039579;27;130506;-76
2022/05/26 07:05:44;;;;;;;2.67;1.15;;;13.00;1.00;;;14.63;74.49;98441.16;5043123;27;129343;-73
2022/05/26 07:08:13;;;;;;;1.50;1.02;;;13.00;1.00;;;14.83;75.68;98450.09;5041324;27;119457;-76
2022/05/26 07:10:42;;;;;;;2.10;1.10;;;13.20;1.00;;;14.57;77.16;98448.88;5040299;27;120035;-75
2022/05/26 07:13:12;;;;;;;3.33;0.98;;;13.30;1.00;;;15.24;74.23;98455.81;5041068;27;130079;-76
2022/05/26 07:15:40;;;;;;;2.03;1.20;;;13.10;1.00;;;15.21;73.89;98453.81;5041306;27;129757;-76
2022/05/26 07:18:10;;;;;;;3.10;1.40;;;13.00;1.00;;;14.87;74.10;98454.44;5043072;27;119576;-72
2022/05/26 07:20:39;;;;;;;2.92;1.10;;;13.10;1.00;;;14.77;72.31;98457.00;5040212;27;119383;-73
2022/05/26 07:23:10;;;;;;;2.92;1.30;;;13.00;1.00;;;14.08;74.21;98465.88;5040922;27;130443;-75
2022/05/26 07:25:40;;;;;;;1.98;1.25;;;12.90;1.00;;;14.06;74.64;98468.19;5039458;27;129961;-71
2022/05/26 07:28:12;;;;;;;1.75;1.20;;;13.10;1.00;;;14.08;74.63;98460.44;5041596;27;121877;-70
2022/05/26 07:30:42;;;;;;;3.53;1.35;;;13.10;1.00;;;14.75;72.71;98465.56;5043018;27;120583;-75
2022/05/26 07:33:11;;;;;;;3.15;1.40;;;13.50;1.00;;;14.82;74.32;98464.88;5025889;27;129121;-77
2022/05/26 07:35:39;;;;;;;5.88;1.52;;;13.50;1.00;;;15.06;73.38;98472.69;5039203;27;129766;-81
2022/05/26 07:43:40;;;;;;;3.03;1.33;;;13.70;1.00;;;15.60;67.16;98481.69;5040407;27;130133;-73
2022/05/26 07:46:11;;;;;;;3.60;1.40;;;14.20;1.00;;;15.94;65.12;98479.03;5040600;27;130642;-74
2022/05/26 07:48:40;;;;;;;2.78;1.38;;;14.40;1.00;;;15.89;65.57;98478.56;5039018;27;119685;-73
2022/05/26 07:51:08;;;;;;;3.05;1.35;;;14.20;1.00;;;15.84;66.49;98484.38;5039796;27;119546;-75
2022/05/26 07:53:36;;;;;;;9.48;1.58;;;13.70;1.00;;;14.85;67.02;98475.06;5037707;27;130302;-79
2022/05/26 07:56:06;;;;;;;2.28;1.40;;;13.00;1.00;;;14.98;68.49;98489.38;5039222;27;129533;-75
2022/05/26 07:58:35;;;;;;;6.60;1.60;;;13.20;1.00;;;15.18;67.19;98498.28;5041105;27;120243;-78
2022/05/26 08:01:04;;;;;;;2.03;1.20;;;13.40;1.00;;;15.76;63.83;98494.41;5040260;27;119603;-74
2022/05/26 08:03:34;;;;;;;3.05;1.90;;;13.80;1.00;;;15.88;63.75;98512.56;5039799;27;129813;-78
2022/05/26 08:06:03;;;;;;;5.60;1.58;;;13.80;1.00;;;15.96;64.45;98493.13;5041397;27;129410;-72
2022/05/26 08:08:32;;;;;;;2.22;1.38;;;14.20;1.00;;;16.02;63.87;98485.41;5040236;27;120240;-73
2022/05/26 08:11:01;;;;;;;3.97;1.48;;;14.20;1.00;;;16.25;61.89;98496.22;5040648;27;119582;-76
2022/05/26 08:13:29;;;;;;;5.10;1.50;;;13.90;1.00;;;16.40;61.16;98474.47;5041875;27;129791;-78
2022/05/26 08:15:58;;;;;;;3.95;2.17;;;14.30;99.90;;;16.31;61.17;98486.50;5039700;27;130141;-75
2022/05/26 08:18:28;;;;;;;4.68;2.13;;;14.50;99.90;;;15.25;66.11;98490.16;5038775;27;122744;-73
2022/05/26 08:21:07;;;;;;;3.70;1.60;;;14.20;99.90;;;15.53;65.05;98500.72;5039844;27;121814;-73
2022/05/26 08:23:35;;;;;;;6.28;2.22;;;14.00;1.00;;;15.76;65.97;98499.88;5038507;27;130430;-73
2022/05/26 08:26:03;;;;;;;3.35;1.40;;;14.10;1.00;;;15.88;61.04;98501.63;5039604;27;130167;-74
2022/05/26 08:28:32;;;;;;;3.00;1.40;;;14.00;99.90;;;16.77;60.56;98496.34;5039884;27;119920;-77
2022/05/26 08:31:00;;;;;;;3.65;1.60;;;14.80;99.90;;;16.73;59.38;98506.47;5040320;27;120127;-75
2022/05/26 08:33:29;;;;;;;2.83;1.63;;;14.90;99.90;;;16.31;59.76;98488.44;5039459;27;130551;-76
2022/05/26 08:36:04;;;;;;;6.53;1.80;;;14.40;99.90;;;16.07;62.07;98498.75;5039874;27;130256;-74
2022/05/26 08:38:33;;;;;;;2.47;1.40;;;14.60;99.90;;;16.90;60.42;98507.84;5039777;27;119620;-75
2022/05/26 08:41:02;;;;;;;4.68;1.90;;;14.60;99.90;;;17.33;58.11;98505.44;5039802;27;119313;-79
2022/05/26 08:43:36;;;;;;;2.17;1.33;;;14.80;99.90;;;16.83;56.99;98500.31;5040231;27;130859;-74
2022/05/26 08:46:09;;;;;;;2.70;1.38;;;14.50;99.90;;;16.71;57.33;98504.13;5039329;27;131168;-78
2022/05/26 08:48:50;;;;;;;3.95;1.42;;;14.80;99.90;;;16.17;57.90;98506.31;5039817;27;119311;-74
2022/05/26 08:51:30;;;;;;;4.60;1.63;;;14.50;99.90;;;15.91;59.90;98500.88;5040106;27;119650;-78
2022/05/26 08:54:00;;;;;;;3.15;1.50;;;14.40;99.90;;;16.30;60.11;98508.78;5041292;27;130387;-70
2022/05/26 08:56:29;;;;;;;7.15;1.83;;;14.50;99.90;;;16.77;59.25;98501.06;5039139;27;129560;-76
2022/05/26 08:59:06;;;;;;;2.47;1.38;;;14.50;99.90;;;17.02;58.24;98498.56;5041379;27;119916;-76
2022/05/26 09:01:35;;;;;;;2.40;1.30;;;14.80;99.90;;;17.14;55.11;98503.75;5040112;27;119352;-74
2022/05/26 09:04:05;;;;;;;3.78;1.45;;;15.00;99.90;;;16.53;54.21;98495.75;5043305;27;105021;-76
2022/05/26 09:15:05;;;;;;;3.63;1.55;;;15.30;99.90;;;17.81;54.09;98507.31;5040471;27;130278;-71
2022/05/26 09:17:33;;;;;;;5.30;1.50;;;15.40;99.90;;;17.51;54.57;98511.03;5038937;27;129368;-77
2022/05/26 09:20:05;;;;;;;4.50;1.55;;;15.00;99.90;;;16.79;57.34;98499.50;5039027;27;120180;-75
2022/05/26 09:22:45;;;;;;;7.13;1.75;;;15.00;99.90;;;17.51;56.60;98511.03;5037681;27;120200;-77
2022/05/26 09:25:32;;;;;;;2.80;1.40;;;15.10;99.90;;;18.12;55.79;98513.34;5038807;27;130090;-79
2022/05/26 09:28:01;;;;;;;2.80;1.27;;;15.60;99.90;;;17.90;54.91;98504.25;5038637;27;129491;-78
2022/05/26 09:30:33;;;;;;;3.97;1.35;;;15.60;99.90;;;17.67;54.29;98507.22;5039085;27;119599;-76
2022/05/26 09:33:03;;;;;;;5.80;1.67;;;15.20;99.90;;;17.73;53.73;98516.66;5040850;27;119864;-77
2022/05/26 09:35:34;;;;;;;3.42;1.33;;;15.40;99.90;;;18.20;53.44;98506.72;5037037;27;130752;-74
2022/05/26 09:38:06;;;;;;;2.97;1.45;;;15.70;99.90;;;18.21;51.67;98508.28;5037106;27;129399;-77
2022/05/26 09:40:37;;;;;;;3.05;1.30;;;15.80;99.90;;;18.26;51.39;98505.19;5037431;27;120816;-78
2022/05/26 09:43:18;;;;;;;2.90;1.17;;;15.70;99.90;;;18.27;49.19;98522.44;5038605;27;119690;-77
2022/05/26 09:45:50;;;;;;;7.22;1.58;;;15.90;99.90;;;17.79;50.89;98487.69;5038389;27;129840;-75
2022/05/26 09:48:26;;;;;;;2.47;1.38;;;15.70;99.90;;;17.99;53.62;98498.41;5038002;27;130315;-75
2022/05/26 09:51:11;;;;;;;4.70;1.63;;;15.70;99.90;;;17.75;52.86;98492.38;5038666;27;119468;-77
2022/05/26 09:53:45;;;;;;;2.90;1.60;;;15.60;99.90;;;18.15;52.91;98496.09;5040812;27;118521;-78
2022/05/26 09:56:29;;;;;;;2.58;1.27;;;15.70;99.90;;;18.40;52.98;98498.16;5038056;27;130135;-77
2022/05/26 09:58:58;;;;;;;4.05;1.60;;;15.80;99.90;;;18.53;51.99;98501.31;5039858;27;130439;-75
2022/05/26 10:01:43;;;;;;;3.15;1.70;;;15.70;99.90;;;18.40;50.34;98498.97;5036288;27;122363;-78
2022/05/26 10:04:25;;;;;;;2.97;1.40;;;15.70;99.90;;;18.74;49.85;98501.34;5038457;27;122249;-75
2022/05/26 10:07:02;;;;;;;2.25;1.27;;;16.40;99.90;;;19.18;50.49;98507.69;5037868;27;129990;-76
2022/05/26 10:09:42;;;;;;;5.40;1.40;;;16.60;99.90;;;19.18;49.21;98513.19;5040345;27;130250;-81
2022/05/26 10:12:23;;;;;;;3.28;0.90;;;16.50;99.90;;;18.36;49.13;98503.66;5038688;27;120175;-73
2022/05/26 10:15:19;;;;;;;2.47;1.05;;;15.80;99.90;;;18.66;47.42;98519.78;5038479;27;119775;-79
2022/05/26 10:18:15;;;;;;;1.98;1.40;;;16.20;99.90;;;18.65;46.74;98526.47;5035798;27;130633;-74
2022/05/26 10:20:52;;;;;;;3.33;1.10;;;16.00;99.90;;;19.01;47.59;98521.06;5038323;27;130369;-77
2022/05/26 10:23:50;;;;;;;3.92;1.10;;;16.50;99.90;;;19.15;43.55;98519.47;5038448;27;119850;-75
2022/05/26 10:26:33;;;;;;;4.93;1.27;;;16.40;99.90;;;18.71;45.90;98517.84;5038839;27;119001;-80
2022/05/26 10:29:45;;;;;;;3.88;1.00;;;16.30;99.90;;;18.34;46.37;98511.50;5036475;27;131608;-77
2022/05/26 10:32:26;;;;;;;3.63;1.20;;;16.30;99.90;;;18.42;48.95;98506.81;5027704;27;130461;-76
2022/05/26 10:35:18;;;;;;;4.07;1.00;;;16.40;99.90;;;18.69;47.84;98521.75;5038099;27;119988;-76
2022/05/26 10:38:35;;;;;;;4.10;1.30;;;16.50;99.90;;;19.18;47.66;98521.44;5037730;27;118759;-72
2022/05/26 10:41:21;;;;;;;3.03;1.00;;;16.90;99.90;;;19.86;44.55;98513.13;5037717;27;130128;-78
2022/05/26 10:44:01;;;;;;;2.70;1.30;;;16.80;99.90;;;20.14;44.02;98513.44;5037567;27;130197;-76
2022/05/26 10:46:33;;;;;;;1.52;1.00;;;17.10;99.90;;;19.72;44.77;98515.88;5037912;27;119873;-74
2022/05/26 10:49:08;;;;;;;10.40;1.30;;;16.80;99.90;;;20.05;45.02;98513.84;5040180;27;118541;-76
2022/05/26 10:51:42;;;;;;;2.77;0.97;;;17.20;99.90;;;19.64;45.79;98525.34;5037425;27;129982;-77
2022/05/26 10:54:16;;;;;;;3.38;1.10;;;16.70;99.90;;;19.82;45.77;98511.56;5037420;27;130182;-75
2022/05/26 10:56:52;;;;;;;5.28;1.67;;;17.00;99.90;;;20.09;46.28;98531.91;5036447;27;122506;-76
2022/05/26 10:59:28;;;;;;;4.28;1.20;;;17.70;99.90;;;19.99;45.47;98520.94;5039755;27;121836;-79
2022/05/26 11:02:01;;;;;;;2.67;1.15;;;17.10;99.90;;;19.80;44.95;98524.94;5039571;27;130645;-78
2022/05/26 11:04:37;;;;;;;3.42;1.20;;;16.90;99.90;;;19.71;45.71;98512.34;5055661;27;129742;-81
2022/05/26 11:07:17;;;;;;;5.00;1.20;;;17.00;99.90;;;19.69;45.01;98531.22;5027620;27;118537;-78
2022/05/26 11:09:53;;;;;;;2.17;1.15;;;17.00;99.90;;;19.54;43.94;98518.66;5051375;27;119282;-78
2022/05/26 11:12:31;;;;;;;3.60;1.00;;;16.80;99.90;;;19.88;42.39;98518.22;5054026;27;129758;-74